createdAt,value
2019-03-12T02:30:32.071Z,94.81
2019-03-12T13:05:04.800Z,53.54
2019-03-12T13:10:27.382Z,52.20
2019-03-12T13:15:46.335Z,50.95
2019-03-12T13:21:05.080Z,52.90
2019-03-12T13:26:23.720Z,50.24
2019-03-12T13:31:42.406Z,49.96
2019-03-12T13:37:01.354Z,50.07
2019-03-12T13:42:19.973Z,50.09
2019-03-12T13:47:39.101Z,48.17
2019-03-12T13:52:57.972Z,50.53
2019-03-12T13:58:16.831Z,51.22
2019-03-12T14:03:35.346Z,49.79
2019-03-12T14:08:53.905Z,50.12
2019-03-12T14:14:12.502Z,49.79
2019-03-12T14:19:31.041Z,51.46
2019-03-12T14:24:49.662Z,51.32
2019-03-12T14:30:10.005Z,49.00
2019-03-12T14:35:28.963Z,50.64
2019-03-12T14:40:47.707Z,51.34
2019-03-12T14:46:06.279Z,52.18
2019-03-12T14:51:33.702Z,51.61
2019-03-12T14:56:52.524Z,51.45
2019-03-12T15:02:11.321Z,51.61
2019-03-12T15:07:29.933Z,50.41
2019-03-12T15:12:48.596Z,50.30
2019-03-12T15:18:07.212Z,49.62
2019-03-12T15:23:26.097Z,50.18
2019-03-12T15:28:44.953Z,50.06
2019-03-12T15:34:03.552Z,50.47
2019-03-12T15:39:22.112Z,49.48
2019-03-12T15:44:40.664Z,49.48
2019-03-12T15:49:59.355Z,52.77
2019-03-12T15:55:17.888Z,51.69
2019-03-12T16:00:36.579Z,51.34
2019-03-12T16:05:55.215Z,53.13
2019-03-12T16:11:13.759Z,53.18
2019-03-12T16:16:32.334Z,51.36
2019-03-12T16:21:50.927Z,50.37
2019-03-12T16:27:09.467Z,50.63
2019-03-12T16:32:28.080Z,49.08
2019-03-12T16:37:46.631Z,50.36
2019-03-12T16:43:05.248Z,48.84
2019-03-12T16:48:23.870Z,49.75
2019-03-12T16:53:42.753Z,49.62
2019-03-12T16:59:01.354Z,49.05
2019-03-12T17:04:19.959Z,48.62
2019-03-12T17:09:38.558Z,49.79
2019-03-12T17:14:57.214Z,47.15
2019-03-12T17:20:16.323Z,47.58
2019-03-12T17:25:35.058Z,47.17
2019-03-12T17:30:54.168Z,47.43
2019-03-12T17:36:12.789Z,46.52
2019-03-12T17:41:31.425Z,47.43
2019-03-12T17:46:50.010Z,45.57
2019-03-12T17:52:08.659Z,45.76
2019-03-12T17:57:28.157Z,47.56
2019-03-12T18:02:47.076Z,47.45
2019-03-12T18:08:08.045Z,45.80
2019-03-12T18:13:27.911Z,46.03
2019-03-12T18:18:46.542Z,45.77
2019-03-12T18:24:05.158Z,46.76
2019-03-12T18:29:23.795Z,45.37
2019-03-12T18:34:42.474Z,43.70
2019-03-12T18:40:01.171Z,44.04
2019-03-12T18:45:25.812Z,44.93
2019-03-12T18:50:44.482Z,44.03
2019-03-12T18:56:03.329Z,45.53
2019-03-12T19:01:22.037Z,44.98
2019-03-12T19:06:40.660Z,44.74
2019-03-12T19:11:59.308Z,44.32
2019-03-12T19:17:17.858Z,44.73
2019-03-12T19:22:36.453Z,44.67
2019-03-12T19:27:59.858Z,45.18
2019-03-12T19:33:17.074Z,45.31
2019-03-12T19:38:36.004Z,50.74
2019-03-12T19:43:54.801Z,56.29
2019-03-12T19:49:13.503Z,60.24
2019-03-12T19:54:32.204Z,63.47
2019-03-12T19:59:50.919Z,62.48
2019-03-12T20:05:11.468Z,62.80
2019-03-12T20:10:53.161Z,61.76
2019-03-12T20:16:50.112Z,63.89
2019-03-12T20:22:46.677Z,66.49
2019-03-12T20:28:41.452Z,67.42
2019-03-12T20:34:29.090Z,70.34
2019-03-12T20:40:10.116Z,67.45
2019-03-12T20:45:52.592Z,66.05
2019-03-12T20:51:33.496Z,66.26
2019-03-12T20:57:17.381Z,64.79
2019-03-12T21:03:10.727Z,64.80
2019-03-12T21:08:38.176Z,66.03
2019-03-12T21:14:16.273Z,66.27
2019-03-12T21:19:57.542Z,69.51
2019-03-12T21:25:19.103Z,74.08
